sensor_id;sensor_type;location;lat;lon;timestamp;P1;durP1;ratioP1;P2;durP2;ratioP2
18336;SDS011;9294;51.106;7.028;2024-03-22T00:01:45;3.65;;;3.45;;
18336;SDS011;9294;51.106;7.028;2024-03-22T00:04:11;3.65;;;3.45;;
18336;SDS011;9294;51.106;7.028;2024-03-22T00:06:39;3.50;;;3.30;;
18336;SDS011;9294;51.106;7.028;2024-03-22T00:09:06;4.07;;;3.88;;
18336;SDS011;9294;51.106;7.028;2024-03-22T00:11:32;4.18;;;3.88;;
18336;SDS011;9294;51.106;7.028;2024-03-22T00:13:58;3.35;;;3.15;;
18336;SDS011;9294;51.106;7.028;2024-03-22T00:16:26;3.65;;;3.42;;
18336;SDS011;9294;51.106;7.028;2024-03-22T00:18:52;4.22;;;3.88;;
18336;SDS011;9294;51.106;7.028;2024-03-22T00:21:19;4.25;;;3.95;;
18336;SDS011;9294;51.106;7.028;2024-03-22T00:23:46;3.50;;;3.30;;
18336;SDS011;9294;51.106;7.028;2024-03-22T00:26:12;3.65;;;3.38;;
18336;SDS011;9294;51.106;7.028;2024-03-22T00:28:38;4.45;;;4.15;;
18336;SDS011;9294;51.106;7.028;2024-03-22T00:31:05;3.88;;;3.67;;
18336;SDS011;9294;51.106;7.028;2024-03-22T00:33:32;3.63;;;3.42;;
18336;SDS011;9294;51.106;7.028;2024-03-22T00:35:59;3.90;;;3.60;;
18336;SDS011;9294;51.106;7.028;2024-03-22T00:38:25;3.85;;;3.65;;
18336;SDS011;9294;51.106;7.028;2024-03-22T00:40:52;3.65;;;3.45;;
18336;SDS011;9294;51.106;7.028;2024-03-22T00:43:18;4.07;;;3.80;;
18336;SDS011;9294;51.106;7.028;2024-03-22T00:45:45;4.38;;;4.07;;
18336;SDS011;9294;51.106;7.028;2024-03-22T00:48:11;3.97;;;3.78;;
18336;SDS011;9294;51.106;7.028;2024-03-22T00:50:39;4.18;;;3.97;;
18336;SDS011;9294;51.106;7.028;2024-03-22T00:53:05;3.97;;;3.67;;
18336;SDS011;9294;51.106;7.028;2024-03-22T00:55:33;3.83;;;3.63;;
18336;SDS011;9294;51.106;7.028;2024-03-22T00:57:59;4.30;;;4.00;;
18336;SDS011;9294;51.106;7.028;2024-03-22T01:00:26;4.68;;;4.38;;
18336;SDS011;9294;51.106;7.028;2024-03-22T01:02:51;3.67;;;3.47;;
18336;SDS011;9294;51.106;7.028;2024-03-22T01:05:18;3.42;;;3.28;;
18336;SDS011;9294;51.106;7.028;2024-03-22T01:07:45;3.80;;;3.60;;
18336;SDS011;9294;51.106;7.028;2024-03-22T01:10:12;4.40;;;4.10;;
18336;SDS011;9294;51.106;7.028;2024-03-22T01:12:37;3.95;;;3.67;;
18336;SDS011;9294;51.106;7.028;2024-03-22T01:15:05;3.78;;;3.47;;
18336;SDS011;9294;51.106;7.028;2024-03-22T01:17:32;3.47;;;3.25;;
18336;SDS011;9294;51.106;7.028;2024-03-22T01:19:59;3.80;;;3.60;;
18336;SDS011;9294;51.106;7.028;2024-03-22T01:22:24;4.32;;;4.05;;
18336;SDS011;9294;51.106;7.028;2024-03-22T01:24:52;3.97;;;3.70;;
18336;SDS011;9294;51.106;7.028;2024-03-22T01:27:18;3.83;;;3.63;;
18336;SDS011;9294;51.106;7.028;2024-03-22T01:29:45;3.47;;;3.38;;
18336;SDS011;9294;51.106;7.028;2024-03-22T01:32:12;3.92;;;3.72;;
18336;SDS011;9294;51.106;7.028;2024-03-22T01:34:38;3.88;;;3.67;;
18336;SDS011;9294;51.106;7.028;2024-03-22T01:37:04;3.95;;;3.75;;
18336;SDS011;9294;51.106;7.028;2024-03-22T01:39:31;4.30;;;4.00;;
18336;SDS011;9294;51.106;7.028;2024-03-22T01:41:58;3.85;;;3.65;;
18336;SDS011;9294;51.106;7.028;2024-03-22T01:44:27;3.60;;;3.40;;
18336;SDS011;9294;51.106;7.028;2024-03-22T01:46:53;4.43;;;4.05;;
18336;SDS011;9294;51.106;7.028;2024-03-22T01:49:20;4.18;;;3.88;;
18336;SDS011;9294;51.106;7.028;2024-03-22T01:51:46;3.53;;;3.35;;
18336;SDS011;9294;51.106;7.028;2024-03-22T01:54:14;4.05;;;3.78;;
18336;SDS011;9294;51.106;7.028;2024-03-22T01:56:41;3.85;;;3.65;;
18336;SDS011;9294;51.106;7.028;2024-03-22T01:59:09;3.80;;;3.60;;
18336;SDS011;9294;51.106;7.028;2024-03-22T02:01:35;3.92;;;3.72;;
18336;SDS011;9294;51.106;7.028;2024-03-22T02:04:02;4.00;;;3.80;;
18336;SDS011;9294;51.106;7.028;2024-03-22T02:06:28;3.92;;;3.72;;
18336;SDS011;9294;51.106;7.028;2024-03-22T02:08:55;4.07;;;3.78;;
18336;SDS011;9294;51.106;7.028;2024-03-22T02:11:22;3.30;;;3.20;;
18336;SDS011;9294;51.106;7.028;2024-03-22T02:13:49;4.30;;;4.05;;
18336;SDS011;9294;51.106;7.028;2024-03-22T02:16:16;3.80;;;3.60;;
18336;SDS011;9294;51.106;7.028;2024-03-22T02:18:42;4.65;;;4.35;;
18336;SDS011;9294;51.106;7.028;2024-03-22T02:21:09;3.97;;;3.78;;
18336;SDS011;9294;51.106;7.028;2024-03-22T02:23:38;3.40;;;3.22;;
18336;SDS011;9294;51.106;7.028;2024-03-22T02:26:04;3.60;;;3.40;;
18336;SDS011;9294;51.106;7.028;2024-03-22T02:28:32;3.92;;;3.72;;
18336;SDS011;9294;51.106;7.028;2024-03-22T02:30:59;3.85;;;3.55;;
18336;SDS011;9294;51.106;7.028;2024-03-22T02:33:25;4.20;;;3.97;;
18336;SDS011;9294;51.106;7.028;2024-03-22T02:35:51;3.83;;;3.63;;
18336;SDS011;9294;51.106;7.028;2024-03-22T02:38:18;3.88;;;3.67;;
18336;SDS011;9294;51.106;7.028;2024-03-22T02:40:45;3.70;;;3.60;;
18336;SDS011;9294;51.106;7.028;2024-03-22T02:43:12;4.57;;;4.28;;
18336;SDS011;9294;51.106;7.028;2024-03-22T02:45:38;3.50;;;3.30;;
18336;SDS011;9294;51.106;7.028;2024-03-22T02:48:05;3.90;;;3.70;;
18336;SDS011;9294;51.106;7.028;2024-03-22T02:50:32;3.75;;;3.55;;
18336;SDS011;9294;51.106;7.028;2024-03-22T02:52:59;3.97;;;3.78;;
18336;SDS011;9294;51.106;7.028;2024-03-22T02:55:25;3.88;;;3.67;;
18336;SDS011;9294;51.106;7.028;2024-03-22T02:57:53;4.35;;;4.15;;
18336;SDS011;9294;51.106;7.028;2024-03-22T03:00:19;3.90;;;3.70;;
18336;SDS011;9294;51.106;7.028;2024-03-22T03:02:45;4.03;;;3.83;;
18336;SDS011;9294;51.106;7.028;2024-03-22T03:05:11;3.58;;;3.38;;
18336;SDS011;9294;51.106;7.028;2024-03-22T03:07:38;3.70;;;3.50;;
18336;SDS011;9294;51.106;7.028;2024-03-22T03:10:04;3.30;;;3.10;;
18336;SDS011;9294;51.106;7.028;2024-03-22T03:12:31;3.88;;;3.63;;
18336;SDS011;9294;51.106;7.028;2024-03-22T03:14:58;3.83;;;3.63;;
18336;SDS011;9294;51.106;7.028;2024-03-22T03:17:25;4.07;;;3.78;;
18336;SDS011;9294;51.106;7.028;2024-03-22T03:19:51;4.05;;;3.75;;
18336;SDS011;9294;51.106;7.028;2024-03-22T03:22:17;3.40;;;3.20;;
18336;SDS011;9294;51.106;7.028;2024-03-22T03:24:43;4.13;;;3.92;;
18336;SDS011;9294;51.106;7.028;2024-03-22T03:27:10;4.10;;;3.85;;
18336;SDS011;9294;51.106;7.028;2024-03-22T03:29:36;3.50;;;3.30;;
18336;SDS011;9294;51.106;7.028;2024-03-22T03:32:04;3.92;;;3.70;;
18336;SDS011;9294;51.106;7.028;2024-03-22T03:34:30;4.10;;;3.90;;
18336;SDS011;9294;51.106;7.028;2024-03-22T03:36:57;4.07;;;3.83;;
18336;SDS011;9294;51.106;7.028;2024-03-22T03:39:25;3.92;;;3.67;;
18336;SDS011;9294;51.106;7.028;2024-03-22T03:41:54;3.75;;;3.55;;
18336;SDS011;9294;51.106;7.028;2024-03-22T03:44:20;2.95;;;2.85;;
18336;SDS011;9294;51.106;7.028;2024-03-22T03:46:46;3.78;;;3.58;;
18336;SDS011;9294;51.106;7.028;2024-03-22T03:49:13;3.70;;;3.50;;
18336;SDS011;9294;51.106;7.028;2024-03-22T03:51:40;3.47;;;3.28;;
18336;SDS011;9294;51.106;7.028;2024-03-22T03:54:06;3.90;;;3.70;;
18336;SDS011;9294;51.106;7.028;2024-03-22T03:56:32;3.88;;;3.67;;
18336;SDS011;9294;51.106;7.028;2024-03-22T03:58:58;3.92;;;3.70;;
18336;SDS011;9294;51.106;7.028;2024-03-22T04:01:25;3.47;;;3.28;;
18336;SDS011;9294;51.106;7.028;2024-03-22T04:03:50;3.90;;;3.70;;
18336;SDS011;9294;51.106;7.028;2024-03-22T04:06:18;3.42;;;3.28;;
18336;SDS011;9294;51.106;7.028;2024-03-22T04:08:44;3.35;;;3.05;;
18336;SDS011;9294;51.106;7.028;2024-03-22T04:11:11;4.28;;;3.97;;
18336;SDS011;9294;51.106;7.028;2024-03-22T04:13:37;3.72;;;3.53;;
18336;SDS011;9294;51.106;7.028;2024-03-22T04:16:04;3.17;;;3.08;;
18336;SDS011;9294;51.106;7.028;2024-03-22T04:18:30;3.67;;;3.47;;
18336;SDS011;9294;51.106;7.028;2024-03-22T04:20:57;3.47;;;3.22;;
18336;SDS011;9294;51.106;7.028;2024-03-22T04:23:25;3.95;;;3.75;;
18336;SDS011;9294;51.106;7.028;2024-03-22T04:25:53;3.55;;;3.35;;
18336;SDS011;9294;51.106;7.028;2024-03-22T04:28:19;3.90;;;3.70;;
18336;SDS011;9294;51.106;7.028;2024-03-22T04:30:53;3.30;;;3.20;;
18336;SDS011;9294;51.106;7.028;2024-03-22T04:33:20;3.60;;;3.40;;
18336;SDS011;9294;51.106;7.028;2024-03-22T04:35:47;3.25;;;3.15;;
18336;SDS011;9294;51.106;7.028;2024-03-22T04:38:13;3.40;;;3.20;;
18336;SDS011;9294;51.106;7.028;2024-03-22T04:40:41;3.30;;;3.20;;
18336;SDS011;9294;51.106;7.028;2024-03-22T04:43:08;4.30;;;3.97;;
18336;SDS011;9294;51.106;7.028;2024-03-22T04:45:34;3.70;;;3.50;;
18336;SDS011;9294;51.106;7.028;2024-03-22T04:48:01;3.00;;;2.90;;
18336;SDS011;9294;51.106;7.028;2024-03-22T04:50:29;3.40;;;3.20;;
18336;SDS011;9294;51.106;7.028;2024-03-22T04:52:56;3.42;;;3.22;;
18336;SDS011;9294;51.106;7.028;2024-03-22T04:55:22;3.80;;;3.60;;
18336;SDS011;9294;51.106;7.028;2024-03-22T04:57:51;3.53;;;3.33;;
18336;SDS011;9294;51.106;7.028;2024-03-22T05:00:18;3.35;;;3.17;;
18336;SDS011;9294;51.106;7.028;2024-03-22T05:02:44;3.70;;;3.40;;
18336;SDS011;9294;51.106;7.028;2024-03-22T05:05:11;3.40;;;3.20;;
18336;SDS011;9294;51.106;7.028;2024-03-22T05:07:37;3.60;;;3.40;;
18336;SDS011;9294;51.106;7.028;2024-03-22T05:10:04;3.55;;;3.35;;
18336;SDS011;9294;51.106;7.028;2024-03-22T05:12:30;3.65;;;3.45;;
18336;SDS011;9294;51.106;7.028;2024-03-22T05:14:58;3.75;;;3.50;;
18336;SDS011;9294;51.106;7.028;2024-03-22T05:17:24;3.53;;;3.33;;
18336;SDS011;9294;51.106;7.028;2024-03-22T05:19:50;3.60;;;3.40;;
18336;SDS011;9294;51.106;7.028;2024-03-22T05:22:17;3.03;;;2.92;;
18336;SDS011;9294;51.106;7.028;2024-03-22T05:24:45;3.95;;;3.75;;
18336;SDS011;9294;51.106;7.028;2024-03-22T05:27:11;3.38;;;3.17;;
18336;SDS011;9294;51.106;7.028;2024-03-22T05:29:38;3.45;;;3.30;;
18336;SDS011;9294;51.106;7.028;2024-03-22T05:32:06;3.65;;;3.45;;
18336;SDS011;9294;51.106;7.028;2024-03-22T05:34:32;3.53;;;3.33;;
18336;SDS011;9294;51.106;7.028;2024-03-22T05:36:58;3.10;;;3.00;;
18336;SDS011;9294;51.106;7.028;2024-03-22T05:39:25;3.25;;;3.05;;
18336;SDS011;9294;51.106;7.028;2024-03-22T05:41:50;3.28;;;3.08;;
18336;SDS011;9294;51.106;7.028;2024-03-22T05:44:17;3.28;;;3.10;;
18336;SDS011;9294;51.106;7.028;2024-03-22T05:46:43;3.28;;;3.10;;
18336;SDS011;9294;51.106;7.028;2024-03-22T05:49:11;3.38;;;3.28;;
18336;SDS011;9294;51.106;7.028;2024-03-22T05:51:37;3.20;;;3.10;;
18336;SDS011;9294;51.106;7.028;2024-03-22T05:54:04;3.20;;;3.00;;
18336;SDS011;9294;51.106;7.028;2024-03-22T05:56:29;3.78;;;3.58;;
18336;SDS011;9294;51.106;7.028;2024-03-22T05:58:56;2.85;;;2.75;;
18336;SDS011;9294;51.106;7.028;2024-03-22T06:01:23;3.15;;;3.05;;
18336;SDS011;9294;51.106;7.028;2024-03-22T06:03:48;3.63;;;3.42;;
18336;SDS011;9294;51.106;7.028;2024-03-22T06:06:16;3.20;;;3.00;;
18336;SDS011;9294;51.106;7.028;2024-03-22T06:08:42;2.90;;;2.80;;
18336;SDS011;9294;51.106;7.028;2024-03-22T06:11:10;3.58;;;3.38;;
18336;SDS011;9294;51.106;7.028;2024-03-22T06:13:36;2.97;;;2.88;;
18336;SDS011;9294;51.106;7.028;2024-03-22T06:16:03;3.30;;;3.20;;
18336;SDS011;9294;51.106;7.028;2024-03-22T06:18:30;3.28;;;3.08;;
18336;SDS011;9294;51.106;7.028;2024-03-22T06:20:56;3.30;;;3.05;;
18336;SDS011;9294;51.106;7.028;2024-03-22T06:23:23;3.40;;;3.00;;
18336;SDS011;9294;51.106;7.028;2024-03-22T06:25:53;3.40;;;3.20;;
18336;SDS011;9294;51.106;7.028;2024-03-22T06:28:20;4.32;;;3.42;;
18336;SDS011;9294;51.106;7.028;2024-03-22T06:30:46;3.67;;;3.50;;
18336;SDS011;9294;51.106;7.028;2024-03-22T06:33:12;3.78;;;3.58;;
18336;SDS011;9294;51.106;7.028;2024-03-22T06:35:39;3.35;;;3.20;;
18336;SDS011;9294;51.106;7.028;2024-03-22T06:38:05;3.65;;;3.45;;
18336;SDS011;9294;51.106;7.028;2024-03-22T06:40:33;3.55;;;3.35;;
18336;SDS011;9294;51.106;7.028;2024-03-22T06:42:59;3.25;;;3.15;;
18336;SDS011;9294;51.106;7.028;2024-03-22T06:45:26;3.63;;;3.33;;
18336;SDS011;9294;51.106;7.028;2024-03-22T06:47:52;3.53;;;3.22;;
18336;SDS011;9294;51.106;7.028;2024-03-22T06:50:19;3.83;;;3.63;;
18336;SDS011;9294;51.106;7.028;2024-03-22T06:52:49;3.30;;;3.10;;
18336;SDS011;9294;51.106;7.028;2024-03-22T06:55:16;3.22;;;3.03;;
18336;SDS011;9294;51.106;7.028;2024-03-22T06:57:43;3.35;;;3.17;;
18336;SDS011;9294;51.106;7.028;2024-03-22T07:00:11;5.07;;;3.42;;
18336;SDS011;9294;51.106;7.028;2024-03-22T07:02:38;3.08;;;2.88;;
18336;SDS011;9294;51.106;7.028;2024-03-22T07:05:05;6.95;;;3.13;;
18336;SDS011;9294;51.106;7.028;2024-03-22T07:07:31;3.50;;;3.30;;
18336;SDS011;9294;51.106;7.028;2024-03-22T07:09:58;3.95;;;2.95;;
18336;SDS011;9294;51.106;7.028;2024-03-22T07:12:23;3.85;;;3.33;;
18336;SDS011;9294;51.106;7.028;2024-03-22T07:14:52;4.05;;;3.70;;
18336;SDS011;9294;51.106;7.028;2024-03-22T07:17:17;3.35;;;3.15;;
18336;SDS011;9294;51.106;7.028;2024-03-22T07:19:48;3.30;;;3.00;;
18336;SDS011;9294;51.106;7.028;2024-03-22T07:22:14;3.33;;;3.13;;
18336;SDS011;9294;51.106;7.028;2024-03-22T07:24:41;3.40;;;3.10;;
18336;SDS011;9294;51.106;7.028;2024-03-22T07:27:06;6.22;;;3.28;;
18336;SDS011;9294;51.106;7.028;2024-03-22T07:29:33;3.45;;;3.10;;
18336;SDS011;9294;51.106;7.028;2024-03-22T07:32:00;4.13;;;3.83;;
18336;SDS011;9294;51.106;7.028;2024-03-22T07:34:28;4.25;;;3.95;;
18336;SDS011;9294;51.106;7.028;2024-03-22T07:36:54;4.18;;;3.78;;
18336;SDS011;9294;51.106;7.028;2024-03-22T07:39:20;8.98;;;4.93;;
18336;SDS011;9294;51.106;7.028;2024-03-22T07:41:46;7.10;;;4.68;;
18336;SDS011;9294;51.106;7.028;2024-03-22T07:44:13;5.18;;;4.55;;
18336;SDS011;9294;51.106;7.028;2024-03-22T07:46:39;4.85;;;4.00;;
18336;SDS011;9294;51.106;7.028;2024-03-22T07:49:07;11.38;;;4.68;;
18336;SDS011;9294;51.106;7.028;2024-03-22T07:51:33;8.25;;;4.95;;
18336;SDS011;9294;51.106;7.028;2024-03-22T07:53:59;6.55;;;4.13;;
18336;SDS011;9294;51.106;7.028;2024-03-22T07:56:25;17.15;;;8.43;;
18336;SDS011;9294;51.106;7.028;2024-03-22T07:58:52;6.30;;;5.70;;
18336;SDS011;9294;51.106;7.028;2024-03-22T08:01:18;7.85;;;5.10;;
18336;SDS011;9294;51.106;7.028;2024-03-22T08:03:44;6.30;;;4.13;;
18336;SDS011;9294;51.106;7.028;2024-03-22T08:06:11;7.10;;;4.00;;
18336;SDS011;9294;51.106;7.028;2024-03-22T08:08:38;7.30;;;4.22;;
18336;SDS011;9294;51.106;7.028;2024-03-22T08:11:04;4.88;;;3.75;;
18336;SDS011;9294;51.106;7.028;2024-03-22T08:13:31;5.13;;;4.18;;
18336;SDS011;9294;51.106;7.028;2024-03-22T08:15:57;13.95;;;4.88;;
18336;SDS011;9294;51.106;7.028;2024-03-22T08:18:23;13.85;;;3.70;;
18336;SDS011;9294;51.106;7.028;2024-03-22T08:20:49;7.53;;;4.18;;
18336;SDS011;9294;51.106;7.028;2024-03-22T08:23:17;11.50;;;4.20;;
18336;SDS011;9294;51.106;7.028;2024-03-22T08:25:45;6.93;;;3.83;;
18336;SDS011;9294;51.106;7.028;2024-03-22T08:28:12;7.95;;;3.30;;
18336;SDS011;9294;51.106;7.028;2024-03-22T08:30:38;4.05;;;3.67;;
18336;SDS011;9294;51.106;7.028;2024-03-22T08:33:05;7.03;;;3.78;;
18336;SDS011;9294;51.106;7.028;2024-03-22T08:35:31;11.88;;;4.13;;
18336;SDS011;9294;51.106;7.028;2024-03-22T08:37:57;8.98;;;4.05;;
18336;SDS011;9294;51.106;7.028;2024-03-22T08:40:25;4.88;;;4.45;;
18336;SDS011;9294;51.106;7.028;2024-03-22T08:42:51;6.72;;;4.47;;
18336;SDS011;9294;51.106;7.028;2024-03-22T08:45:17;6.82;;;4.57;;
18336;SDS011;9294;51.106;7.028;2024-03-22T08:47:44;6.45;;;4.85;;
18336;SDS011;9294;51.106;7.028;2024-03-22T08:50:10;10.93;;;4.78;;
18336;SDS011;9294;51.106;7.028;2024-03-22T08:52:37;8.50;;;4.90;;
18336;SDS011;9294;51.106;7.028;2024-03-22T08:55:03;7.63;;;4.63;;
18336;SDS011;9294;51.106;7.028;2024-03-22T08:57:32;9.30;;;4.78;;
18336;SDS011;9294;51.106;7.028;2024-03-22T08:59:58;6.38;;;4.38;;
18336;SDS011;9294;51.106;7.028;2024-03-22T09:02:25;8.57;;;4.85;;
18336;SDS011;9294;51.106;7.028;2024-03-22T09:04:51;4.82;;;4.22;;
18336;SDS011;9294;51.106;7.028;2024-03-22T09:07:19;5.07;;;4.07;;
18336;SDS011;9294;51.106;7.028;2024-03-22T09:09:45;7.40;;;4.40;;
18336;SDS011;9294;51.106;7.028;2024-03-22T09:12:12;6.47;;;3.80;;
18336;SDS011;9294;51.106;7.028;2024-03-22T09:14:39;5.47;;;3.88;;
18336;SDS011;9294;51.106;7.028;2024-03-22T09:17:05;4.32;;;3.30;;
18336;SDS011;9294;51.106;7.028;2024-03-22T09:19:32;4.63;;;3.72;;
18336;SDS011;9294;51.106;7.028;2024-03-22T09:21:58;3.92;;;3.53;;
18336;SDS011;9294;51.106;7.028;2024-03-22T09:24:24;4.60;;;2.92;;
18336;SDS011;9294;51.106;7.028;2024-03-22T09:26:51;5.88;;;3.33;;
18336;SDS011;9294;51.106;7.028;2024-03-22T09:29:18;3.80;;;3.42;;
18336;SDS011;9294;51.106;7.028;2024-03-22T09:31:46;4.88;;;3.60;;
18336;SDS011;9294;51.106;7.028;2024-03-22T09:34:11;5.55;;;3.35;;
18336;SDS011;9294;51.106;7.028;2024-03-22T09:36:41;6.63;;;3.17;;
18336;SDS011;9294;51.106;7.028;2024-03-22T09:39:07;8.05;;;3.88;;
18336;SDS011;9294;51.106;7.028;2024-03-22T09:41:34;9.98;;;3.90;;
18336;SDS011;9294;51.106;7.028;2024-03-22T09:44:07;5.80;;;4.07;;
18336;SDS011;9294;51.106;7.028;2024-03-22T09:46:38;9.20;;;3.75;;
18336;SDS011;9294;51.106;7.028;2024-03-22T09:49:05;5.75;;;3.45;;
18336;SDS011;9294;51.106;7.028;2024-03-22T09:51:33;7.13;;;3.33;;
18336;SDS011;9294;51.106;7.028;2024-03-22T09:54:01;8.40;;;3.38;;
18336;SDS011;9294;51.106;7.028;2024-03-22T09:56:28;4.10;;;3.70;;
18336;SDS011;9294;51.106;7.028;2024-03-22T09:58:55;5.45;;;3.03;;
18336;SDS011;9294;51.106;7.028;2024-03-22T10:01:22;8.15;;;3.33;;
18336;SDS011;9294;51.106;7.028;2024-03-22T10:03:49;5.50;;;3.58;;
18336;SDS011;9294;51.106;7.028;2024-03-22T10:06:19;6.28;;;3.63;;
18336;SDS011;9294;51.106;7.028;2024-03-22T10:08:44;4.00;;;3.60;;
18336;SDS011;9294;51.106;7.028;2024-03-22T10:11:11;5.18;;;4.00;;
18336;SDS011;9294;51.106;7.028;2024-03-22T10:13:37;7.38;;;4.00;;
18336;SDS011;9294;51.106;7.028;2024-03-22T10:16:04;6.47;;;4.20;;
18336;SDS011;9294;51.106;7.028;2024-03-22T10:18:32;4.13;;;3.70;;
18336;SDS011;9294;51.106;7.028;2024-03-22T10:20:59;7.45;;;4.45;;
18336;SDS011;9294;51.106;7.028;2024-03-22T10:23:27;4.43;;;4.03;;
18336;SDS011;9294;51.106;7.028;2024-03-22T10:25:54;6.95;;;4.35;;
18336;SDS011;9294;51.106;7.028;2024-03-22T10:28:21;5.55;;;4.13;;
18336;SDS011;9294;51.106;7.028;2024-03-22T10:30:48;5.53;;;3.75;;
18336;SDS011;9294;51.106;7.028;2024-03-22T10:33:15;3.97;;;3.70;;
18336;SDS011;9294;51.106;7.028;2024-03-22T10:35:44;6.68;;;4.22;;
18336;SDS011;9294;51.106;7.028;2024-03-22T10:38:10;9.60;;;4.35;;
18336;SDS011;9294;51.106;7.028;2024-03-22T10:40:40;8.90;;;4.32;;
18336;SDS011;9294;51.106;7.028;2024-03-22T10:43:10;6.80;;;4.57;;
18336;SDS011;9294;51.106;7.028;2024-03-22T10:45:37;5.18;;;4.43;;
18336;SDS011;9294;51.106;7.028;2024-03-22T10:48:05;7.15;;;4.82;;
18336;SDS011;9294;51.106;7.028;2024-03-22T10:50:35;6.60;;;5.00;;
18336;SDS011;9294;51.106;7.028;2024-03-22T10:53:04;4.97;;;4.28;;
18336;SDS011;9294;51.106;7.028;2024-03-22T10:55:34;7.68;;;4.43;;
18336;SDS011;9294;51.106;7.028;2024-03-22T10:58:04;8.52;;;5.25;;
18336;SDS011;9294;51.106;7.028;2024-03-22T11:00:32;6.05;;;4.78;;
18336;SDS011;9294;51.106;7.028;2024-03-22T11:02:59;5.75;;;4.38;;
18336;SDS011;9294;51.106;7.028;2024-03-22T11:05:27;6.88;;;4.15;;
18336;SDS011;9294;51.106;7.028;2024-03-22T11:08:03;4.93;;;4.28;;
18336;SDS011;9294;51.106;7.028;2024-03-22T11:10:33;6.13;;;4.57;;
18336;SDS011;9294;51.106;7.028;2024-03-22T11:13:00;5.53;;;3.85;;
18336;SDS011;9294;51.106;7.028;2024-03-22T11:15:29;4.80;;;4.00;;
18336;SDS011;9294;51.106;7.028;2024-03-22T11:17:55;5.03;;;4.22;;
18336;SDS011;9294;51.106;7.028;2024-03-22T11:20:22;4.13;;;3.83;;
18336;SDS011;9294;51.106;7.028;2024-03-22T11:22:47;4.80;;;4.20;;
18336;SDS011;9294;51.106;7.028;2024-03-22T11:25:14;7.03;;;4.22;;
18336;SDS011;9294;51.106;7.028;2024-03-22T11:27:40;4.78;;;3.75;;
18336;SDS011;9294;51.106;7.028;2024-03-22T11:30:07;6.40;;;5.10;;
18336;SDS011;9294;51.106;7.028;2024-03-22T11:32:34;5.28;;;4.53;;
18336;SDS011;9294;51.106;7.028;2024-03-22T11:35:07;6.03;;;4.25;;
18336;SDS011;9294;51.106;7.028;2024-03-22T11:37:34;7.05;;;5.00;;
18336;SDS011;9294;51.106;7.028;2024-03-22T11:40:01;5.55;;;4.88;;
18336;SDS011;9294;51.106;7.028;2024-03-22T11:42:30;5.68;;;4.03;;
18336;SDS011;9294;51.106;7.028;2024-03-22T11:44:57;5.18;;;4.18;;
18336;SDS011;9294;51.106;7.028;2024-03-22T11:47:23;4.45;;;3.95;;
18336;SDS011;9294;51.106;7.028;2024-03-22T11:49:51;4.93;;;4.25;;
18336;SDS011;9294;51.106;7.028;2024-03-22T11:52:17;4.20;;;3.92;;
18336;SDS011;9294;51.106;7.028;2024-03-22T11:54:49;5.20;;;4.28;;
18336;SDS011;9294;51.106;7.028;2024-03-22T11:57:17;4.75;;;4.20;;
18336;SDS011;9294;51.106;7.028;2024-03-22T11:59:44;5.90;;;3.97;;
18336;SDS011;9294;51.106;7.028;2024-03-22T12:02:09;4.45;;;3.50;;
18336;SDS011;9294;51.106;7.028;2024-03-22T12:04:40;4.63;;;4.00;;
18336;SDS011;9294;51.106;7.028;2024-03-22T12:07:09;5.03;;;4.18;;
18336;SDS011;9294;51.106;7.028;2024-03-22T12:09:37;3.90;;;3.38;;
18336;SDS011;9294;51.106;7.028;2024-03-22T12:12:03;3.72;;;3.00;;
18336;SDS011;9294;51.106;7.028;2024-03-22T12:14:31;4.25;;;3.40;;
18336;SDS011;9294;51.106;7.028;2024-03-22T12:16:56;3.80;;;3.40;;
18336;SDS011;9294;51.106;7.028;2024-03-22T12:19:24;4.47;;;3.67;;
18336;SDS011;9294;51.106;7.028;2024-03-22T12:21:49;3.70;;;3.50;;
18336;SDS011;9294;51.106;7.028;2024-03-22T12:24:17;3.85;;;3.10;;
18336;SDS011;9294;51.106;7.028;2024-03-22T12:26:43;4.57;;;3.30;;
18336;SDS011;9294;51.106;7.028;2024-03-22T12:29:10;3.20;;;3.00;;
18336;SDS011;9294;51.106;7.028;2024-03-22T12:31:37;3.35;;;2.97;;
18336;SDS011;9294;51.106;7.028;2024-03-22T12:34:04;3.53;;;3.20;;
18336;SDS011;9294;51.106;7.028;2024-03-22T12:36:29;3.35;;;3.08;;
18336;SDS011;9294;51.106;7.028;2024-03-22T12:38:56;3.35;;;3.15;;
18336;SDS011;9294;51.106;7.028;2024-03-22T12:41:23;2.97;;;2.75;;
18336;SDS011;9294;51.106;7.028;2024-03-22T12:43:50;3.30;;;3.10;;
18336;SDS011;9294;51.106;7.028;2024-03-22T12:46:16;3.38;;;3.08;;
18336;SDS011;9294;51.106;7.028;2024-03-22T12:48:42;3.47;;;2.72;;
18336;SDS011;9294;51.106;7.028;2024-03-22T12:51:08;3.20;;;2.90;;
18336;SDS011;9294;51.106;7.028;2024-03-22T12:53:35;3.40;;;3.13;;
18336;SDS011;9294;51.106;7.028;2024-03-22T12:56:01;2.75;;;2.55;;
18336;SDS011;9294;51.106;7.028;2024-03-22T12:58:30;3.20;;;2.90;;
18336;SDS011;9294;51.106;7.028;2024-03-22T13:00:56;3.05;;;2.85;;
18336;SDS011;9294;51.106;7.028;2024-03-22T13:03:23;2.95;;;2.75;;
18336;SDS011;9294;51.106;7.028;2024-03-22T13:05:50;3.20;;;3.00;;
18336;SDS011;9294;51.106;7.028;2024-03-22T13:08:16;3.97;;;3.15;;
18336;SDS011;9294;51.106;7.028;2024-03-22T13:10:44;3.55;;;3.25;;
18336;SDS011;9294;51.106;7.028;2024-03-22T13:13:10;3.08;;;2.88;;
18336;SDS011;9294;51.106;7.028;2024-03-22T13:15:37;2.67;;;2.47;;
18336;SDS011;9294;51.106;7.028;2024-03-22T13:18:04;3.10;;;2.85;;
18336;SDS011;9294;51.106;7.028;2024-03-22T13:20:30;2.97;;;2.80;;
18336;SDS011;9294;51.106;7.028;2024-03-22T13:22:56;3.05;;;2.72;;
18336;SDS011;9294;51.106;7.028;2024-03-22T13:25:22;3.28;;;2.90;;
18336;SDS011;9294;51.106;7.028;2024-03-22T13:27:50;3.38;;;3.17;;
18336;SDS011;9294;51.106;7.028;2024-03-22T13:30:16;3.60;;;3.20;;
18336;SDS011;9294;51.106;7.028;2024-03-22T13:32:44;2.95;;;2.75;;
18336;SDS011;9294;51.106;7.028;2024-03-22T13:35:11;2.95;;;2.75;;
18336;SDS011;9294;51.106;7.028;2024-03-22T13:37:36;2.75;;;2.55;;
18336;SDS011;9294;51.106;7.028;2024-03-22T13:40:04;2.60;;;2.40;;
18336;SDS011;9294;51.106;7.028;2024-03-22T13:42:30;3.05;;;2.72;;
18336;SDS011;9294;51.106;7.028;2024-03-22T13:44:57;3.13;;;2.92;;
18336;SDS011;9294;51.106;7.028;2024-03-22T13:47:23;2.92;;;2.72;;
18336;SDS011;9294;51.106;7.028;2024-03-22T13:49:52;2.50;;;2.40;;
18336;SDS011;9294;51.106;7.028;2024-03-22T13:52:17;2.58;;;2.42;;
18336;SDS011;9294;51.106;7.028;2024-03-22T13:54:45;2.88;;;2.53;;
18336;SDS011;9294;51.106;7.028;2024-03-22T13:57:11;2.65;;;2.55;;
18336;SDS011;9294;51.106;7.028;2024-03-22T13:59:38;2.80;;;2.70;;
18336;SDS011;9294;51.106;7.028;2024-03-22T14:02:05;2.80;;;2.60;;
18336;SDS011;9294;51.106;7.028;2024-03-22T14:04:32;2.55;;;2.45;;
18336;SDS011;9294;51.106;7.028;2024-03-22T14:06:59;2.83;;;2.72;;
18336;SDS011;9294;51.106;7.028;2024-03-22T14:09:29;2.72;;;2.53;;
18336;SDS011;9294;51.106;7.028;2024-03-22T14:11:55;2.42;;;2.33;;
18336;SDS011;9294;51.106;7.028;2024-03-22T14:14:22;3.03;;;2.80;;
18336;SDS011;9294;51.106;7.028;2024-03-22T14:16:49;2.63;;;2.47;;
18336;SDS011;9294;51.106;7.028;2024-03-22T14:19:15;2.47;;;2.38;;
18336;SDS011;9294;51.106;7.028;2024-03-22T14:21:43;2.92;;;2.72;;
18336;SDS011;9294;51.106;7.028;2024-03-22T14:24:11;2.50;;;2.40;;
18336;SDS011;9294;51.106;7.028;2024-03-22T14:26:37;2.50;;;2.38;;
18336;SDS011;9294;51.106;7.028;2024-03-22T14:29:07;2.63;;;2.53;;
18336;SDS011;9294;51.106;7.028;2024-03-22T14:31:33;2.60;;;2.40;;
18336;SDS011;9294;51.106;7.028;2024-03-22T14:34:00;2.88;;;2.67;;
18336;SDS011;9294;51.106;7.028;2024-03-22T14:36:26;2.55;;;2.45;;
18336;SDS011;9294;51.106;7.028;2024-03-22T14:38:52;2.33;;;2.22;;
18336;SDS011;9294;51.106;7.028;2024-03-22T14:41:19;2.97;;;2.40;;
18336;SDS011;9294;51.106;7.028;2024-03-22T14:43:46;2.60;;;2.50;;
18336;SDS011;9294;51.106;7.028;2024-03-22T14:46:12;2.60;;;2.45;;
18336;SDS011;9294;51.106;7.028;2024-03-22T14:48:38;2.50;;;2.40;;
18336;SDS011;9294;51.106;7.028;2024-03-22T14:51:05;2.50;;;2.40;;
18336;SDS011;9294;51.106;7.028;2024-03-22T14:53:34;2.15;;;2.15;;
18336;SDS011;9294;51.106;7.028;2024-03-22T14:56:00;2.17;;;2.08;;
18336;SDS011;9294;51.106;7.028;2024-03-22T14:58:30;2.60;;;2.50;;